createdAt,value
2019-05-21T00:00:09.557Z,0.00
2019-05-21T00:01:09.575Z,0.00
2019-05-21T00:02:09.597Z,0.00
2019-05-21T00:03:09.617Z,0.00
2019-05-21T00:04:09.636Z,0.00
2019-05-21T00:05:09.740Z,0.00
2019-05-21T00:06:09.729Z,0.00
2019-05-21T00:07:09.755Z,0.00
2019-05-21T00:08:09.780Z,0.00
2019-05-21T00:09:09.785Z,0.00
2019-05-21T00:10:09.803Z,0.00
2019-05-21T00:11:09.801Z,0.00
2019-05-21T00:12:09.801Z,0.00
2019-05-21T00:13:09.824Z,0.00
2019-05-21T00:14:09.838Z,0.00
2019-05-21T00:15:09.862Z,0.00
2019-05-21T00:16:09.876Z,0.00
2019-05-21T00:17:09.893Z,0.00
2019-05-21T00:18:09.916Z,0.00
2019-05-21T00:19:09.937Z,0.00
2019-05-21T00:20:09.956Z,0.00
2019-05-21T00:21:09.981Z,0.00
2019-05-21T00:22:09.997Z,0.00
2019-05-21T00:23:10.016Z,0.00
2019-05-21T00:24:10.047Z,0.00
2019-05-21T00:25:10.060Z,0.00
2019-05-21T00:26:10.077Z,0.00
2019-05-21T00:27:10.159Z,0.00
2019-05-21T00:28:10.120Z,0.00
2019-05-21T00:29:10.136Z,0.00
2019-05-21T00:30:10.160Z,0.00
2019-05-21T00:31:10.178Z,0.00
2019-05-21T00:32:10.197Z,0.00
2019-05-21T00:33:10.216Z,0.00
2019-05-21T00:34:10.236Z,0.00
2019-05-21T00:35:10.257Z,0.00
2019-05-21T00:36:10.276Z,0.00
2019-05-21T00:37:10.318Z,0.00
2019-05-21T00:38:10.315Z,0.00
2019-05-21T00:39:10.334Z,0.00
2019-05-21T00:40:10.358Z,0.00
2019-05-21T00:41:10.378Z,0.00
2019-05-21T00:42:10.397Z,0.00
2019-05-21T00:43:10.418Z,0.00
2019-05-21T00:44:10.437Z,0.00
2019-05-21T00:45:10.457Z,0.00
2019-05-21T00:46:10.475Z,0.00
2019-05-21T00:47:10.495Z,0.00
2019-05-21T00:48:10.515Z,0.00
2019-05-21T00:49:10.533Z,0.00
2019-05-21T00:50:10.554Z,0.00
2019-05-21T00:51:10.576Z,0.00
2019-05-21T00:52:10.593Z,0.00
2019-05-21T00:53:10.616Z,0.00
2019-05-21T00:54:10.635Z,0.00
2019-05-21T00:55:10.655Z,0.00
2019-05-21T00:56:10.684Z,0.00
2019-05-21T00:57:10.805Z,0.00
2019-05-21T00:58:10.719Z,0.00
2019-05-21T00:59:10.740Z,0.00
2019-05-21T01:00:10.985Z,0.00
2019-05-21T01:01:10.776Z,0.00
2019-05-21T01:02:10.795Z,0.00
2019-05-21T01:03:10.816Z,0.00
2019-05-21T01:04:10.835Z,0.00
2019-05-21T01:05:10.856Z,0.00
2019-05-21T01:06:10.872Z,0.00
2019-05-21T01:07:10.896Z,0.00
2019-05-21T01:08:10.917Z,0.00
2019-05-21T01:09:10.934Z,0.00
2019-05-21T01:10:10.953Z,0.00
2019-05-21T01:11:10.974Z,0.00
2019-05-21T01:12:10.993Z,0.00
2019-05-21T01:13:11.021Z,0.00
2019-05-21T01:14:11.034Z,0.00
2019-05-21T01:15:11.054Z,0.00
2019-05-21T01:16:11.074Z,0.00
2019-05-21T01:17:11.102Z,0.00
2019-05-21T01:18:11.113Z,0.00
2019-05-21T01:19:11.131Z,0.00
2019-05-21T01:20:11.153Z,0.00
2019-05-21T01:21:11.176Z,0.00
2019-05-21T01:22:11.233Z,0.00
2019-05-21T01:23:11.210Z,0.00
2019-05-21T01:24:11.232Z,0.00
2019-05-21T01:25:11.254Z,0.00
2019-05-21T01:26:11.271Z,0.00
2019-05-21T01:27:11.291Z,0.00
2019-05-21T01:28:11.312Z,0.00
2019-05-21T01:29:11.331Z,0.00
2019-05-21T01:30:11.350Z,0.00
2019-05-21T01:31:11.371Z,0.00
2019-05-21T01:32:11.393Z,0.00
2019-05-21T01:33:11.409Z,0.00
2019-05-21T01:34:11.650Z,0.00
2019-05-21T01:35:17.101Z,0.00
2019-05-21T01:36:11.471Z,0.00
2019-05-21T01:37:11.488Z,0.00
2019-05-21T01:38:11.512Z,0.00
2019-05-21T01:39:11.529Z,0.00
2019-05-21T01:40:11.563Z,0.00
2019-05-21T01:41:11.628Z,0.00
2019-05-21T01:42:11.623Z,0.00
2019-05-21T01:43:11.699Z,0.00
2019-05-21T01:44:11.711Z,0.00
2019-05-21T01:45:11.685Z,0.00
2019-05-21T01:46:11.696Z,0.00
2019-05-21T01:47:11.688Z,0.00
2019-05-21T01:48:11.709Z,0.00
2019-05-21T01:49:11.726Z,0.00
2019-05-21T01:50:11.744Z,0.00
2019-05-21T01:51:11.766Z,0.00
2019-05-21T01:52:11.786Z,0.00
2019-05-21T01:53:11.804Z,0.00
2019-05-21T01:54:11.825Z,0.00
2019-05-21T01:55:11.843Z,0.00
2019-05-21T01:56:11.865Z,0.00
2019-05-21T01:57:11.887Z,0.00
2019-05-21T01:58:11.904Z,0.00
2019-05-21T01:59:11.926Z,0.00
2019-05-21T02:00:11.943Z,0.00
2019-05-21T02:01:11.970Z,0.00
2019-05-21T02:02:11.983Z,0.00
2019-05-21T02:03:12.004Z,0.00
2019-05-21T02:04:12.023Z,0.00
2019-05-21T02:05:12.039Z,0.00
2019-05-21T02:06:12.070Z,0.00
2019-05-21T02:07:12.077Z,0.00
2019-05-21T02:08:12.103Z,0.00
2019-05-21T02:09:12.120Z,0.00
2019-05-21T02:10:12.146Z,0.00
2019-05-21T02:11:12.160Z,0.00
2019-05-21T02:12:12.182Z,0.00
2019-05-21T02:13:12.202Z,0.00
2019-05-21T02:14:12.237Z,0.00
2019-05-21T02:15:12.242Z,0.00
2019-05-21T02:16:12.260Z,0.00
2019-05-21T02:17:12.275Z,0.00
2019-05-21T02:18:12.296Z,0.00
2019-05-21T02:19:12.320Z,0.00
2019-05-21T02:20:12.338Z,0.00
2019-05-21T02:21:12.356Z,0.00
2019-05-21T02:22:12.375Z,0.00
2019-05-21T02:23:12.396Z,0.00
2019-05-21T02:24:12.416Z,0.00
2019-05-21T02:25:12.435Z,0.00
2019-05-21T02:26:12.453Z,0.00
2019-05-21T02:27:12.474Z,0.00
2019-05-21T02:28:12.501Z,0.00
2019-05-21T02:29:12.512Z,0.00
2019-05-21T02:30:12.537Z,0.00
2019-05-21T02:31:12.553Z,0.00
2019-05-21T02:32:12.573Z,0.00
2019-05-21T02:33:12.597Z,0.00
2019-05-21T02:34:12.613Z,0.00
2019-05-21T02:35:12.661Z,0.00
2019-05-21T02:36:12.661Z,0.00
2019-05-21T02:37:12.676Z,0.00
2019-05-21T02:38:12.691Z,0.00
2019-05-21T02:39:12.721Z,0.00
2019-05-21T02:40:12.733Z,0.00
2019-05-21T02:41:12.753Z,0.00
2019-05-21T02:42:12.771Z,0.00
2019-05-21T02:43:12.794Z,0.00
2019-05-21T02:44:12.807Z,0.00
2019-05-21T02:45:12.825Z,0.00
2019-05-21T02:46:12.847Z,0.00
2019-05-21T02:47:12.868Z,0.00
2019-05-21T02:48:12.883Z,0.00
2019-05-21T02:49:12.904Z,0.00
2019-05-21T02:50:12.923Z,0.00
2019-05-21T02:51:12.947Z,0.00
2019-05-21T02:52:12.962Z,0.00
2019-05-21T02:53:12.982Z,0.00
2019-05-21T02:54:13.007Z,5.63
2019-05-21T02:55:13.024Z,5.63
2019-05-21T02:56:13.042Z,5.63
2019-05-21T02:57:13.067Z,5.63
2019-05-21T02:58:13.081Z,5.63
2019-05-21T02:59:13.101Z,5.63
2019-05-21T03:00:13.118Z,5.63
2019-05-21T03:01:13.137Z,5.63
2019-05-21T03:02:13.176Z,11.25
2019-05-21T03:03:13.187Z,11.25
2019-05-21T03:04:13.202Z,11.25
2019-05-21T03:05:13.216Z,11.25
2019-05-21T03:06:14.892Z,11.25
2019-05-21T03:07:13.256Z,11.25
2019-05-21T03:08:13.275Z,16.88
2019-05-21T03:09:13.294Z,16.88
2019-05-21T03:10:13.316Z,16.88
2019-05-21T03:11:13.334Z,16.88
2019-05-21T03:12:13.354Z,22.50
2019-05-21T03:13:13.372Z,22.50
2019-05-21T03:14:13.394Z,22.50
2019-05-21T03:15:13.413Z,22.50
2019-05-21T03:16:13.513Z,22.50
2019-05-21T03:17:13.499Z,28.13
2019-05-21T03:18:13.505Z,28.13
2019-05-21T03:19:16.462Z,28.13
2019-05-21T03:20:13.575Z,33.75
2019-05-21T03:21:13.586Z,33.75
2019-05-21T03:22:13.580Z,33.75
2019-05-21T03:23:13.570Z,33.75
2019-05-21T03:24:13.590Z,39.38
2019-05-21T03:25:13.605Z,39.38
2019-05-21T03:26:13.631Z,39.38
2019-05-21T03:27:13.653Z,45.00
2019-05-21T03:28:13.662Z,45.00
2019-05-21T03:29:13.682Z,45.00
2019-05-21T03:30:13.705Z,50.63
2019-05-21T03:31:13.726Z,50.63
2019-05-21T03:32:13.756Z,50.63
2019-05-21T03:33:13.766Z,56.25
2019-05-21T03:34:13.782Z,56.25
2019-05-21T03:35:13.802Z,56.25
2019-05-21T03:36:29.623Z,56.25
2019-05-21T03:37:13.842Z,61.88
2019-05-21T03:38:13.859Z,61.88
2019-05-21T03:39:13.884Z,61.88
2019-05-21T03:40:13.900Z,67.50
2019-05-21T03:41:13.916Z,67.50
2019-05-21T03:42:13.936Z,67.50
2019-05-21T03:43:13.960Z,73.13
2019-05-21T03:44:13.977Z,73.13
2019-05-21T03:45:14.000Z,73.13
2019-05-21T03:46:14.015Z,78.75
2019-05-21T03:47:14.035Z,78.75
2019-05-21T03:48:14.055Z,78.75
2019-05-21T03:49:14.090Z,84.38
2019-05-21T03:50:14.096Z,84.38
2019-05-21T03:51:14.113Z,84.38
2019-05-21T03:52:14.133Z,90.00
2019-05-21T03:53:14.150Z,90.00
2019-05-21T03:54:14.171Z,90.00
2019-05-21T03:55:14.189Z,90.00
2019-05-21T03:56:14.211Z,95.63
2019-05-21T03:57:14.232Z,95.63
2019-05-21T03:58:14.247Z,95.63
2019-05-21T03:59:14.269Z,101.25
2019-05-21T04:00:14.290Z,101.25
2019-05-21T04:01:14.307Z,106.88
2019-05-21T04:02:14.331Z,106.88
2019-05-21T04:03:14.348Z,106.88
2019-05-21T04:04:14.369Z,112.50
2019-05-21T04:05:14.382Z,112.50
2019-05-21T04:06:14.406Z,112.50
2019-05-21T04:07:14.425Z,112.50
2019-05-21T04:08:14.450Z,112.50
2019-05-21T04:09:14.464Z,118.13
2019-05-21T04:10:14.486Z,118.13
2019-05-21T04:11:14.591Z,118.13
2019-05-21T04:12:14.525Z,123.75
2019-05-21T04:13:14.541Z,123.75
2019-05-21T04:14:14.560Z,123.75
2019-05-21T04:15:14.586Z,129.38
2019-05-21T04:16:14.601Z,129.38
2019-05-21T04:17:14.621Z,129.38
2019-05-21T04:18:14.639Z,135.00
2019-05-21T04:19:14.661Z,135.00
2019-05-21T04:20:14.679Z,135.00
2019-05-21T04:21:14.698Z,135.00
2019-05-21T04:22:14.718Z,135.00
2019-05-21T04:23:14.737Z,140.63
2019-05-21T04:24:14.758Z,140.63
2019-05-21T04:25:14.777Z,140.63
2019-05-21T04:26:14.796Z,140.63
2019-05-21T04:27:14.822Z,146.25
2019-05-21T04:28:14.838Z,146.25
2019-05-21T04:29:14.858Z,146.25
2019-05-21T04:30:14.884Z,146.25
2019-05-21T04:31:14.899Z,151.88
2019-05-21T04:32:14.916Z,151.88
2019-05-21T04:33:14.942Z,151.88
2019-05-21T04:34:14.956Z,151.88
2019-05-21T04:35:14.975Z,157.50
2019-05-21T04:36:14.994Z,157.50
2019-05-21T04:37:17.484Z,157.50
2019-05-21T04:38:15.034Z,157.50
2019-05-21T04:39:15.059Z,157.50
2019-05-21T04:40:15.081Z,163.13
2019-05-21T04:41:15.092Z,163.13
2019-05-21T04:42:15.115Z,163.13
2019-05-21T04:43:15.133Z,163.13
2019-05-21T04:44:15.154Z,163.13
2019-05-21T04:45:15.175Z,163.13
2019-05-21T04:46:15.194Z,168.75
2019-05-21T04:47:15.216Z,168.75
2019-05-21T04:48:15.242Z,168.75
2019-05-21T04:49:15.251Z,174.38
2019-05-21T04:50:15.275Z,174.38
2019-05-21T04:51:15.290Z,174.38
2019-05-21T04:52:15.391Z,174.38
2019-05-21T04:53:15.397Z,180.00
2019-05-21T04:54:15.411Z,180.00
2019-05-21T04:55:15.454Z,180.00
2019-05-21T04:56:15.468Z,180.00
2019-05-21T04:57:15.455Z,185.63
2019-05-21T04:58:15.459Z,185.63
2019-05-21T04:59:15.468Z,185.63
2019-05-21T05:00:15.470Z,191.25
2019-05-21T05:01:15.491Z,191.25
2019-05-21T05:02:15.512Z,196.88
2019-05-21T05:03:15.530Z,196.88
2019-05-21T05:04:20.983Z,202.50
2019-05-21T05:05:15.577Z,202.50
2019-05-21T05:06:15.588Z,208.13
2019-05-21T05:07:27.683Z,202.50
2019-05-21T05:08:15.627Z,208.13
2019-05-21T05:09:15.650Z,208.13
2019-05-21T05:10:15.669Z,208.13
2019-05-21T05:11:15.693Z,213.75
2019-05-21T05:12:15.709Z,208.13
2019-05-21T05:13:15.729Z,225.00
2019-05-21T05:14:15.750Z,225.00
2019-05-21T05:15:15.779Z,225.00
2019-05-21T05:16:15.793Z,230.63
2019-05-21T05:17:15.810Z,230.63
2019-05-21T05:18:15.830Z,258.75
2019-05-21T05:19:15.850Z,253.13
2019-05-21T05:20:15.898Z,275.63
2019-05-21T05:21:15.887Z,303.75
2019-05-21T05:22:15.912Z,292.50
2019-05-21T05:23:15.930Z,286.88
2019-05-21T05:24:15.953Z,331.88
2019-05-21T05:25:15.969Z,298.13
2019-05-21T05:26:15.990Z,270.00
2019-05-21T05:27:16.010Z,258.75
2019-05-21T05:28:16.031Z,236.25
2019-05-21T05:29:16.050Z,230.63
2019-05-21T05:30:16.070Z,230.63
2019-05-21T05:31:16.091Z,230.63
2019-05-21T05:32:16.118Z,230.63
2019-05-21T05:33:16.132Z,258.75
2019-05-21T05:34:16.152Z,399.38
2019-05-21T05:35:16.173Z,416.25
2019-05-21T05:36:16.194Z,326.25
2019-05-21T05:37:16.214Z,286.88
2019-05-21T05:38:16.234Z,264.38
2019-05-21T05:39:16.255Z,253.13
2019-05-21T05:40:16.280Z,270.00
2019-05-21T05:41:16.295Z,281.25
2019-05-21T05:42:16.314Z,275.63
2019-05-21T05:43:16.338Z,275.63
2019-05-21T05:44:16.375Z,253.13
2019-05-21T05:45:16.383Z,258.75
2019-05-21T05:46:16.404Z,270.00
2019-05-21T05:47:16.417Z,275.63
2019-05-21T05:48:16.439Z,270.00
2019-05-21T05:49:16.460Z,270.00
2019-05-21T05:50:16.483Z,270.00
2019-05-21T05:51:16.501Z,275.63
2019-05-21T05:52:16.523Z,275.63
2019-05-21T05:53:16.540Z,275.63
2019-05-21T05:54:16.561Z,286.88
2019-05-21T05:55:16.581Z,331.88
2019-05-21T05:56:16.603Z,489.38
2019-05-21T05:57:16.623Z,568.13
2019-05-21T05:58:16.645Z,472.50
2019-05-21T05:59:16.668Z,376.88
2019-05-21T06:00:16.688Z,388.13
2019-05-21T06:01:16.706Z,388.13
2019-05-21T06:02:16.727Z,405.00
2019-05-21T06:03:16.750Z,376.88
2019-05-21T06:04:16.771Z,427.50
2019-05-21T06:05:16.793Z,489.38
2019-05-21T06:06:16.811Z,511.88
2019-05-21T06:07:16.832Z,590.63
2019-05-21T06:08:16.852Z,675.00
2019-05-21T06:09:16.871Z,652.50
2019-05-21T06:10:16.897Z,720.00
2019-05-21T06:11:16.916Z,658.13
2019-05-21T06:12:16.936Z,568.13
2019-05-21T06:13:16.954Z,613.13
2019-05-21T06:14:16.977Z,478.13
2019-05-21T06:15:16.999Z,388.13
2019-05-21T06:16:17.021Z,489.38
2019-05-21T06:17:17.042Z,725.63
2019-05-21T06:18:17.064Z,883.13
2019-05-21T06:19:17.087Z,950.63
2019-05-21T06:20:17.107Z,911.25
2019-05-21T06:21:17.127Z,680.63
2019-05-21T06:22:17.151Z,843.75
2019-05-21T06:23:17.171Z,950.63
2019-05-21T06:24:17.283Z,1091.25
2019-05-21T06:25:17.302Z,1006.88
2019-05-21T06:26:17.282Z,950.63
2019-05-21T06:27:17.278Z,1366.88
2019-05-21T06:28:17.343Z,1310.63
2019-05-21T06:29:17.347Z,1068.75
2019-05-21T06:30:17.346Z,1170.00
2019-05-21T06:31:17.345Z,1417.50
2019-05-21T06:32:17.369Z,1614.38
2019-05-21T06:33:17.403Z,1816.88
2019-05-21T06:34:17.413Z,1805.63
2019-05-21T06:35:17.438Z,1867.50
2019-05-21T06:36:17.466Z,1963.13
2019-05-21T06:37:17.483Z,2041.88
2019-05-21T06:38:18.467Z,2013.75
2019-05-21T06:39:17.529Z,1974.38
2019-05-21T06:40:17.553Z,2030.63
2019-05-21T06:41:17.575Z,2058.75
2019-05-21T06:42:17.621Z,2053.13
2019-05-21T06:43:17.626Z,2098.13
2019-05-21T06:44:17.657Z,2120.63
2019-05-21T06:45:17.669Z,2070.00
2019-05-21T06:46:17.701Z,2092.50
2019-05-21T06:47:17.724Z,2205.00
2019-05-21T06:48:17.758Z,1524.38
2019-05-21T06:49:17.771Z,1901.25
2019-05-21T06:50:17.799Z,1991.25
2019-05-21T06:51:17.859Z,2176.88
2019-05-21T06:52:17.850Z,2221.88
2019-05-21T06:53:17.875Z,2266.88
2019-05-21T06:54:17.898Z,2188.13
2019-05-21T06:55:17.928Z,2165.63
2019-05-21T06:56:17.954Z,2233.13
2019-05-21T06:57:17.983Z,2176.88
2019-05-21T06:58:18.010Z,2193.75
2019-05-21T06:59:18.036Z,2210.63
2019-05-21T07:00:18.078Z,2300.63
2019-05-21T07:01:18.085Z,2221.88
2019-05-21T07:02:18.115Z,2188.13
2019-05-21T07:03:18.142Z,2193.75
2019-05-21T07:04:18.192Z,2345.63
2019-05-21T07:05:18.195Z,2351.25
2019-05-21T07:06:18.226Z,2334.38
2019-05-21T07:07:18.251Z,2401.88
2019-05-21T07:08:33.608Z,2463.75
2019-05-21T07:09:18.309Z,2407.50
2019-05-21T07:10:18.336Z,2441.25
2019-05-21T07:11:18.362Z,2458.13
2019-05-21T07:12:18.390Z,2396.25
2019-05-21T07:13:18.417Z,2441.25
2019-05-21T07:14:18.462Z,2469.38
2019-05-21T07:15:18.476Z,2446.88
2019-05-21T07:16:18.506Z,2508.75
2019-05-21T07:17:18.530Z,2576.25
2019-05-21T07:18:18.565Z,2632.50
2019-05-21T07:19:18.592Z,2655.00
2019-05-21T07:20:18.623Z,2626.88
2019-05-21T07:21:18.651Z,2576.25
2019-05-21T07:22:18.679Z,2559.38
2019-05-21T07:23:18.710Z,2660.63
2019-05-21T07:24:18.743Z,2739.38
2019-05-21T07:25:18.767Z,2655.00
2019-05-21T07:26:18.845Z,2722.50
2019-05-21T07:27:18.830Z,2806.88
2019-05-21T07:28:18.917Z,2767.50
2019-05-21T07:29:18.888Z,2784.38
2019-05-21T07:30:18.917Z,2773.13
2019-05-21T07:31:18.950Z,2688.75
2019-05-21T07:32:18.979Z,2728.13
2019-05-21T07:33:19.008Z,2700.00
2019-05-21T07:34:19.041Z,2700.00
2019-05-21T07:35:19.071Z,2705.63
2019-05-21T07:36:19.106Z,2795.63
2019-05-21T07:37:19.189Z,2851.88
2019-05-21T07:38:19.200Z,2885.63
2019-05-21T07:39:19.277Z,2885.63
2019-05-21T07:40:19.269Z,2851.88
2019-05-21T07:41:20.333Z,2891.25
2019-05-21T07:42:19.292Z,2806.88
2019-05-21T07:43:19.318Z,2671.88
2019-05-21T07:44:19.350Z,2790.00
2019-05-21T07:45:19.380Z,2756.25
2019-05-21T07:46:19.438Z,2683.13
2019-05-21T07:47:19.444Z,2868.75
2019-05-21T07:48:19.475Z,2660.63
2019-05-21T07:49:19.507Z,2542.50
2019-05-21T07:50:19.539Z,2356.88
2019-05-21T07:51:19.571Z,2430.00
2019-05-21T07:52:19.599Z,2092.50
2019-05-21T07:53:19.631Z,3026.25
2019-05-21T07:54:19.664Z,3121.88
2019-05-21T07:55:19.697Z,2992.50
2019-05-21T07:56:19.726Z,3026.25
2019-05-21T07:57:19.760Z,3099.38
2019-05-21T07:58:19.792Z,3166.88
2019-05-21T07:59:19.830Z,3240.00
2019-05-21T08:00:19.860Z,3172.50
2019-05-21T08:01:19.890Z,3166.88
2019-05-21T08:02:19.921Z,3183.75
2019-05-21T08:03:19.952Z,3206.25
2019-05-21T08:04:19.980Z,3206.25
2019-05-21T08:05:20.016Z,3228.75
2019-05-21T08:06:20.048Z,3037.50
2019-05-21T08:07:20.080Z,3020.63
2019-05-21T08:08:20.120Z,3060.00
2019-05-21T08:09:20.144Z,2986.88
2019-05-21T08:10:20.180Z,2958.75
2019-05-21T08:11:20.212Z,3121.88
2019-05-21T08:12:37.331Z,3088.13
2019-05-21T08:13:20.279Z,3121.88
2019-05-21T08:14:20.312Z,3234.38
2019-05-21T08:15:20.348Z,3290.63
2019-05-21T08:16:20.379Z,3217.50
2019-05-21T08:17:20.409Z,3195.00
2019-05-21T08:18:20.446Z,3301.88
2019-05-21T08:19:21.902Z,3206.25
2019-05-21T08:20:20.510Z,3133.13
2019-05-21T08:21:20.546Z,3189.38
2019-05-21T08:22:20.585Z,3296.25
2019-05-21T08:23:20.617Z,3330.00
2019-05-21T08:24:20.653Z,3279.38
2019-05-21T08:25:20.684Z,3245.63
2019-05-21T08:26:20.727Z,3251.25
2019-05-21T08:27:20.780Z,3206.25
2019-05-21T08:28:20.786Z,2801.25
2019-05-21T08:29:20.824Z,1383.75
2019-05-21T08:30:20.856Z,556.88
2019-05-21T08:31:20.891Z,523.13
2019-05-21T08:32:20.926Z,523.13
2019-05-21T08:33:20.961Z,534.38
2019-05-21T08:34:20.995Z,590.63
2019-05-21T08:35:21.048Z,680.63
2019-05-21T08:36:21.127Z,753.75
2019-05-21T08:37:21.136Z,911.25
2019-05-21T08:38:21.191Z,1057.50
2019-05-21T08:39:28.989Z,1198.13
2019-05-21T08:40:21.202Z,1293.75
2019-05-21T08:41:21.226Z,1440.00
2019-05-21T08:42:21.258Z,1524.38
2019-05-21T08:43:22.240Z,1704.38
2019-05-21T08:44:21.328Z,1670.63
2019-05-21T08:45:21.357Z,978.75
2019-05-21T08:46:21.387Z,534.38
2019-05-21T08:47:21.419Z,1237.50
2019-05-21T08:48:21.450Z,2098.13
2019-05-21T08:49:21.482Z,2390.63
2019-05-21T08:50:21.513Z,2514.38
2019-05-21T08:51:21.545Z,2525.63
2019-05-21T08:52:21.585Z,2604.38
2019-05-21T08:53:21.605Z,1580.63
2019-05-21T08:54:21.638Z,2047.50
2019-05-21T08:55:21.671Z,2581.88
2019-05-21T08:56:21.703Z,2643.75
2019-05-21T08:57:21.733Z,2767.50
2019-05-21T08:58:21.765Z,2823.75
2019-05-21T08:59:21.800Z,2790.00
2019-05-21T09:00:21.830Z,765.00
2019-05-21T09:01:21.866Z,708.75
2019-05-21T09:02:21.891Z,1890.00
2019-05-21T09:03:21.926Z,2846.25
2019-05-21T09:04:21.960Z,455.63
2019-05-21T09:05:22.051Z,489.38
2019-05-21T09:06:22.018Z,528.75
2019-05-21T09:07:22.064Z,596.25
2019-05-21T09:08:22.084Z,663.75
2019-05-21T09:09:22.110Z,765.00
2019-05-21T09:10:22.139Z,804.38
2019-05-21T09:11:22.171Z,1153.13
2019-05-21T09:12:22.201Z,3060.00
2019-05-21T09:13:22.235Z,933.75
2019-05-21T09:14:22.261Z,770.63
2019-05-21T09:15:22.292Z,1209.38
2019-05-21T09:16:22.329Z,1665.00
2019-05-21T09:17:22.368Z,1125.00
2019-05-21T09:18:22.422Z,2030.63
2019-05-21T09:19:22.413Z,2188.13
2019-05-21T09:20:22.440Z,2126.25
2019-05-21T09:21:22.466Z,2317.50
2019-05-21T09:22:22.495Z,2244.38
2019-05-21T09:23:22.539Z,2171.25
2019-05-21T09:24:22.558Z,1766.25
2019-05-21T09:25:22.590Z,1226.25
2019-05-21T09:26:22.618Z,1417.50
2019-05-21T09:27:22.647Z,1839.38
2019-05-21T09:28:22.677Z,1451.25
2019-05-21T09:29:22.712Z,1524.38
2019-05-21T09:30:22.739Z,2025.00
2019-05-21T09:31:22.771Z,1991.25
2019-05-21T09:32:22.800Z,1710.00
2019-05-21T09:33:22.830Z,1513.13
2019-05-21T09:34:22.862Z,1462.50
2019-05-21T09:35:22.896Z,1113.75
2019-05-21T09:36:25.207Z,945.00
2019-05-21T09:37:22.956Z,1051.88
2019-05-21T09:38:23.049Z,1445.63
2019-05-21T09:39:23.045Z,1260.00
2019-05-21T09:40:23.114Z,1215.00
2019-05-21T09:41:23.130Z,1181.25
2019-05-21T09:42:23.113Z,1158.75
2019-05-21T09:43:23.142Z,1170.00
2019-05-21T09:44:23.171Z,1198.13
2019-05-21T09:45:23.203Z,1276.88
2019-05-21T09:46:23.238Z,1333.13
2019-05-21T09:47:23.266Z,1428.75
2019-05-21T09:48:23.304Z,1490.63
2019-05-21T09:49:23.328Z,2210.63
2019-05-21T09:50:23.362Z,2542.50
2019-05-21T09:51:23.393Z,2255.63
2019-05-21T09:52:23.424Z,2126.25
2019-05-21T09:53:23.457Z,2863.13
2019-05-21T09:54:23.490Z,3571.88
2019-05-21T09:55:23.530Z,3577.50
2019-05-21T09:56:23.556Z,3645.00
2019-05-21T09:57:23.586Z,3763.13
2019-05-21T09:58:23.633Z,4207.50
2019-05-21T09:59:23.654Z,4342.50
2019-05-21T10:00:23.692Z,4421.25
2019-05-21T10:01:23.719Z,4460.63
2019-05-21T10:02:23.755Z,4511.25
2019-05-21T10:03:23.793Z,4246.88
2019-05-21T10:04:23.824Z,1299.38
2019-05-21T10:05:23.858Z,1091.25
2019-05-21T10:06:23.895Z,883.13
2019-05-21T10:07:38.117Z,905.63
2019-05-21T10:08:23.967Z,1029.38
2019-05-21T10:09:23.997Z,3645.00
2019-05-21T10:10:24.032Z,1822.50
2019-05-21T10:11:24.072Z,2407.50
2019-05-21T10:12:24.104Z,2823.75
2019-05-21T10:13:24.137Z,860.63
2019-05-21T10:14:24.170Z,736.88
2019-05-21T10:15:24.210Z,680.63
2019-05-21T10:16:24.240Z,708.75
2019-05-21T10:17:24.271Z,663.75
2019-05-21T10:18:24.308Z,601.88
2019-05-21T10:19:24.342Z,630.00
2019-05-21T10:20:24.371Z,686.25
2019-05-21T10:21:24.405Z,911.25
2019-05-21T10:22:24.438Z,888.75
2019-05-21T10:23:24.467Z,832.50
2019-05-21T10:24:24.501Z,1136.25
2019-05-21T10:25:24.530Z,3763.13
2019-05-21T10:26:24.561Z,4213.13
2019-05-21T10:27:24.593Z,4320.00
2019-05-21T10:28:24.649Z,4432.50
2019-05-21T10:29:24.661Z,4258.13
2019-05-21T10:30:24.801Z,4100.63
2019-05-21T10:31:24.722Z,3937.50
2019-05-21T10:32:24.752Z,3594.38
2019-05-21T10:33:24.784Z,3948.75
2019-05-21T10:34:24.819Z,4134.38
2019-05-21T10:35:24.855Z,4314.38
2019-05-21T10:36:24.970Z,4488.75
2019-05-21T10:37:24.982Z,4404.38
2019-05-21T10:38:25.037Z,4477.50
2019-05-21T10:39:25.040Z,4775.63
2019-05-21T10:40:25.047Z,4972.50
2019-05-21T10:41:25.066Z,4680.00
2019-05-21T10:42:25.101Z,4590.00
2019-05-21T10:43:25.140Z,4635.00
2019-05-21T10:44:25.184Z,4629.38
2019-05-21T10:45:25.213Z,4781.25
2019-05-21T10:46:25.254Z,4702.50
2019-05-21T10:47:25.288Z,4910.63
2019-05-21T10:48:25.326Z,4865.63
2019-05-21T10:49:25.366Z,4646.25
2019-05-21T10:50:25.407Z,4410.00
2019-05-21T10:51:25.449Z,4432.50
2019-05-21T10:52:25.499Z,4533.75
2019-05-21T10:53:25.521Z,3898.13
2019-05-21T10:54:25.562Z,3909.38
2019-05-21T10:55:25.603Z,3375.00
2019-05-21T10:56:25.651Z,3982.50
2019-05-21T10:57:25.691Z,4230.00
2019-05-21T10:58:25.721Z,4263.75
2019-05-21T10:59:25.762Z,4179.38
2019-05-21T11:00:25.801Z,3414.38
2019-05-21T11:01:25.866Z,2829.38
2019-05-21T11:02:25.887Z,2694.38
2019-05-21T11:03:25.926Z,2986.88
2019-05-21T11:04:25.965Z,3273.75
2019-05-21T11:05:28.800Z,1395.00
2019-05-21T11:06:26.046Z,1316.25
2019-05-21T11:07:26.104Z,1243.13
2019-05-21T11:08:26.129Z,1175.63
2019-05-21T11:09:26.165Z,1068.75
2019-05-21T11:10:26.201Z,956.25
2019-05-21T11:11:26.241Z,883.13
2019-05-21T11:12:26.290Z,860.63
2019-05-21T11:13:26.317Z,871.88
2019-05-21T11:14:26.367Z,939.38
2019-05-21T11:15:26.397Z,1001.25
2019-05-21T11:16:26.437Z,1119.38
2019-05-21T11:17:26.467Z,1226.25
2019-05-21T11:18:26.502Z,1423.13
2019-05-21T11:19:26.540Z,1552.50
2019-05-21T11:20:26.574Z,1372.50
2019-05-21T11:21:26.612Z,1299.38
2019-05-21T11:22:26.645Z,1243.13
2019-05-21T11:23:26.681Z,1164.38
2019-05-21T11:24:26.714Z,1102.50
2019-05-21T11:25:26.757Z,1085.63
2019-05-21T11:26:26.789Z,1136.25
2019-05-21T11:27:26.828Z,1119.38
2019-05-21T11:28:26.922Z,1119.38
2019-05-21T11:29:26.921Z,1091.25
2019-05-21T11:30:26.978Z,1001.25
2019-05-21T11:31:26.981Z,945.00
2019-05-21T11:32:26.990Z,883.13
2019-05-21T11:33:27.026Z,871.88
2019-05-21T11:34:27.058Z,871.88
2019-05-21T11:35:27.088Z,877.50
2019-05-21T11:36:27.120Z,900.00
2019-05-21T11:37:27.152Z,933.75
2019-05-21T11:38:39.617Z,956.25
2019-05-21T11:39:27.221Z,984.38
2019-05-21T11:40:27.251Z,1023.75
2019-05-21T11:41:27.287Z,1102.50
2019-05-21T11:42:27.313Z,1209.38
2019-05-21T11:43:27.344Z,1535.63
2019-05-21T11:44:27.377Z,2598.75
2019-05-21T11:45:32.110Z,3217.50
2019-05-21T11:46:27.439Z,2593.13
2019-05-21T11:47:27.470Z,3431.25
2019-05-21T11:48:27.504Z,4190.63
2019-05-21T11:49:27.537Z,4303.13
2019-05-21T11:50:27.568Z,4646.25
2019-05-21T11:51:27.601Z,5321.25
2019-05-21T11:52:27.636Z,5310.00
2019-05-21T11:53:31.581Z,5445.00
2019-05-21T11:54:27.699Z,4663.13
2019-05-21T11:55:27.741Z,3009.38
2019-05-21T11:56:27.776Z,3088.13
2019-05-21T11:57:27.801Z,1636.88
2019-05-21T11:58:27.837Z,1513.13
2019-05-21T11:59:27.871Z,1906.88
2019-05-21T12:00:27.910Z,1130.63
2019-05-21T12:01:27.943Z,1170.00
2019-05-21T12:02:27.976Z,1771.88
2019-05-21T12:03:28.013Z,1642.50
2019-05-21T12:04:28.047Z,1873.13
2019-05-21T12:05:28.081Z,1935.00
2019-05-21T12:06:28.130Z,2182.50
2019-05-21T12:07:28.150Z,1586.25
2019-05-21T12:08:28.184Z,1400.63
2019-05-21T12:09:28.216Z,1417.50
2019-05-21T12:10:28.254Z,1434.38
2019-05-21T12:11:28.285Z,1406.25
2019-05-21T12:12:28.319Z,1575.00
2019-05-21T12:13:28.361Z,2064.38
2019-05-21T12:14:28.386Z,2092.50
2019-05-21T12:15:28.420Z,2317.50
2019-05-21T12:16:28.458Z,2536.88
2019-05-21T12:17:28.484Z,1906.88
2019-05-21T12:18:28.522Z,1861.88
2019-05-21T12:19:28.558Z,2053.13
2019-05-21T12:20:36.601Z,2401.88
2019-05-21T12:21:28.621Z,2025.00
2019-05-21T12:22:28.652Z,1918.13
2019-05-21T12:23:28.686Z,1417.50
2019-05-21T12:24:28.719Z,1091.25
2019-05-21T12:25:28.787Z,1006.88
2019-05-21T12:26:28.878Z,961.88
2019-05-21T12:27:28.869Z,1012.50
2019-05-21T12:28:28.902Z,1181.25
2019-05-21T12:29:28.906Z,1389.38
2019-05-21T12:30:28.931Z,1935.00
2019-05-21T12:31:28.951Z,1631.25